createdAt,value
2018-05-18T00:00:31.737Z,12.12
2018-05-18T00:01:31.693Z,12.00
2018-05-18T00:02:31.649Z,11.97
2018-05-18T00:03:31.608Z,11.97
2018-05-18T00:04:31.569Z,12.02
2018-05-18T00:05:31.521Z,12.12
2018-05-18T00:06:31.486Z,12.02
2018-05-18T00:07:31.436Z,12.05
2018-05-18T00:08:31.395Z,11.99
2018-05-18T00:09:31.350Z,12.11
2018-05-18T00:10:31.317Z,12.05
2018-05-18T00:11:31.262Z,12.02
2018-05-18T00:12:31.219Z,12.03
2018-05-18T00:13:31.183Z,12.08
2018-05-18T00:14:31.131Z,12.02
2018-05-18T00:15:31.090Z,12.08
2018-05-18T00:16:31.046Z,12.00
2018-05-18T00:17:31.004Z,12.05
2018-05-18T00:18:30.961Z,12.05
2018-05-18T00:19:30.921Z,12.02
2018-05-18T00:20:30.872Z,12.00
2018-05-18T00:21:30.832Z,11.99
2018-05-18T00:22:30.788Z,12.08
2018-05-18T00:23:30.746Z,11.95
2018-05-18T00:24:30.700Z,12.08
2018-05-18T00:25:30.659Z,12.03
2018-05-18T00:26:30.615Z,12.05
2018-05-18T00:27:30.597Z,12.11
2018-05-18T00:28:30.538Z,12.02
2018-05-18T00:29:30.496Z,12.03
2018-05-18T00:30:30.446Z,11.97
2018-05-18T00:31:30.399Z,11.99
2018-05-18T00:32:30.355Z,12.11
2018-05-18T00:33:30.412Z,12.07
2018-05-18T00:34:30.277Z,12.05
2018-05-18T00:35:30.232Z,12.05
2018-05-18T00:36:30.187Z,12.00
2018-05-18T00:37:30.144Z,12.11
2018-05-18T00:38:30.098Z,12.11
2018-05-18T00:39:30.054Z,12.07
2018-05-18T00:40:30.013Z,12.14
2018-05-18T00:41:29.971Z,12.08
2018-05-18T00:42:29.927Z,12.07
2018-05-18T00:43:29.882Z,12.03
2018-05-18T00:44:29.843Z,12.07
2018-05-18T00:45:29.797Z,12.02
2018-05-18T00:46:29.753Z,12.03
2018-05-18T00:47:29.710Z,12.11
2018-05-18T00:48:29.743Z,12.08
2018-05-18T00:49:29.625Z,12.00
2018-05-18T00:50:29.580Z,11.97
2018-05-18T00:51:29.540Z,12.07
2018-05-18T00:52:29.499Z,11.95
2018-05-18T00:53:29.452Z,12.08
2018-05-18T00:54:29.413Z,12.07
2018-05-18T00:55:29.366Z,12.05
2018-05-18T00:56:29.326Z,11.99
2018-05-18T00:57:29.281Z,12.02
2018-05-18T00:58:29.241Z,12.05
2018-05-18T00:59:29.198Z,11.96
2018-05-18T01:00:29.153Z,12.07
2018-05-18T01:01:29.116Z,12.02
2018-05-18T01:02:29.065Z,11.96
2018-05-18T01:03:29.022Z,12.02
2018-05-18T01:04:28.980Z,12.05
2018-05-18T01:05:28.936Z,12.03
2018-05-18T01:06:28.894Z,11.99
2018-05-18T01:07:28.851Z,12.05
2018-05-18T01:08:28.817Z,12.00
2018-05-18T01:09:28.765Z,12.07
2018-05-18T01:10:28.719Z,12.02
2018-05-18T01:11:28.676Z,12.03
2018-05-18T01:12:28.635Z,11.99
2018-05-18T01:13:28.596Z,12.03
2018-05-18T01:14:28.548Z,11.97
2018-05-18T01:15:28.581Z,11.97
2018-05-18T01:16:28.540Z,12.02
2018-05-18T01:17:28.419Z,12.00
2018-05-18T01:18:28.375Z,12.03
2018-05-18T01:19:28.331Z,11.96
2018-05-18T01:20:28.289Z,11.88
2018-05-18T01:21:28.255Z,11.88
2018-05-18T01:22:28.204Z,11.85
2018-05-18T01:23:28.161Z,11.88
2018-05-18T01:24:28.116Z,11.91
2018-05-18T01:25:28.075Z,11.85
2018-05-18T01:26:28.034Z,11.91
2018-05-18T01:27:27.989Z,11.85
2018-05-18T01:28:27.943Z,11.80
2018-05-18T01:29:27.903Z,11.85
2018-05-18T01:30:27.869Z,11.76
2018-05-18T01:31:27.816Z,11.81
2018-05-18T01:32:27.770Z,11.81
2018-05-18T01:33:27.728Z,11.71
2018-05-18T01:34:27.685Z,11.76
2018-05-18T01:35:27.641Z,11.73
2018-05-18T01:36:27.600Z,11.68
2018-05-18T01:37:27.557Z,11.76
2018-05-18T01:38:27.574Z,11.68
2018-05-18T01:39:27.468Z,11.73
2018-05-18T01:40:27.425Z,11.74
2018-05-18T01:41:27.388Z,11.73
2018-05-18T01:42:27.347Z,11.78
2018-05-18T01:43:27.296Z,11.83
2018-05-18T01:44:27.254Z,11.71
2018-05-18T01:45:27.210Z,11.68
2018-05-18T01:46:27.167Z,11.65
2018-05-18T01:47:27.127Z,11.65
2018-05-18T01:48:27.081Z,11.65
2018-05-18T01:49:27.044Z,11.71
2018-05-18T01:50:26.995Z,11.71
2018-05-18T01:51:26.952Z,11.70
2018-05-18T01:52:26.909Z,11.68
2018-05-18T01:53:26.866Z,11.65
2018-05-18T01:54:26.825Z,11.62
2018-05-18T01:55:26.782Z,11.70
2018-05-18T01:56:26.735Z,11.68
2018-05-18T01:57:26.695Z,11.70
2018-05-18T01:58:26.651Z,11.70
2018-05-18T01:59:26.605Z,11.68
2018-05-18T02:00:26.562Z,11.68
2018-05-18T02:01:26.519Z,11.67
2018-05-18T02:02:26.477Z,11.65
2018-05-18T02:03:26.434Z,11.65
2018-05-18T02:04:26.392Z,11.70
2018-05-18T02:05:26.353Z,11.68
2018-05-18T02:06:26.301Z,11.65
2018-05-18T02:07:26.258Z,11.63
2018-05-18T02:08:26.215Z,11.59
2018-05-18T02:09:26.174Z,11.62
2018-05-18T02:10:26.127Z,11.52
2018-05-18T02:11:26.084Z,11.58
2018-05-18T02:12:26.042Z,11.58
2018-05-18T02:13:26.001Z,11.52
2018-05-18T02:14:25.956Z,11.59
2018-05-18T02:15:25.915Z,11.52
2018-05-18T02:16:25.869Z,11.55
2018-05-18T02:17:25.828Z,11.53
2018-05-18T02:18:25.787Z,11.60
2018-05-18T02:19:25.740Z,11.58
2018-05-18T02:20:25.696Z,11.52
2018-05-18T02:21:25.659Z,11.49
2018-05-18T02:22:25.612Z,11.60
2018-05-18T02:23:25.567Z,11.48
2018-05-18T02:24:25.529Z,11.49
2018-05-18T02:25:25.479Z,11.51
2018-05-18T02:26:25.440Z,11.53
2018-05-18T02:27:25.396Z,11.53
2018-05-18T02:28:25.357Z,11.51
2018-05-18T02:29:25.307Z,11.43
2018-05-18T02:30:25.264Z,11.44
2018-05-18T02:31:25.223Z,11.49
2018-05-18T02:32:25.183Z,11.52
2018-05-18T02:33:25.134Z,11.45
2018-05-18T02:34:25.089Z,11.35
2018-05-18T02:35:25.046Z,11.43
2018-05-18T02:36:25.002Z,11.49
2018-05-18T02:37:24.968Z,11.44
2018-05-18T02:38:24.916Z,11.45
2018-05-18T02:39:24.877Z,11.43
2018-05-18T02:40:24.833Z,11.41
2018-05-18T02:41:24.787Z,11.40
2018-05-18T02:42:24.740Z,11.41
2018-05-18T02:43:24.698Z,11.44
2018-05-18T02:44:24.656Z,11.40
2018-05-18T02:45:24.621Z,11.37
2018-05-18T02:46:24.571Z,11.38
2018-05-18T02:47:24.530Z,11.41
2018-05-18T02:48:24.482Z,11.35
2018-05-18T02:49:24.443Z,11.37
2018-05-18T02:50:24.395Z,11.30
2018-05-18T02:51:24.355Z,11.34
2018-05-18T02:52:24.363Z,11.34
2018-05-18T02:53:24.266Z,11.33
2018-05-18T02:54:24.221Z,11.33
2018-05-18T02:55:24.182Z,11.26
2018-05-18T02:56:24.135Z,11.30
2018-05-18T02:57:24.093Z,11.25
2018-05-18T02:58:24.051Z,11.33
2018-05-18T02:59:24.015Z,11.22
2018-05-18T03:00:23.970Z,11.23
2018-05-18T03:01:23.926Z,11.25
2018-05-18T03:02:23.876Z,11.33
2018-05-18T03:03:23.832Z,11.23
2018-05-18T03:04:23.793Z,11.31
2018-05-18T03:05:23.744Z,11.27
2018-05-18T03:06:23.703Z,11.25
2018-05-18T03:07:23.658Z,11.27
2018-05-18T03:08:23.619Z,11.31
2018-05-18T03:09:23.573Z,11.25
2018-05-18T03:10:23.529Z,11.26
2018-05-18T03:11:23.483Z,11.27
2018-05-18T03:12:23.449Z,11.25
2018-05-18T03:13:23.396Z,11.27
2018-05-18T03:14:23.352Z,11.33
2018-05-18T03:15:23.310Z,11.27
2018-05-18T03:16:23.270Z,11.27
2018-05-18T03:17:23.222Z,11.26
2018-05-18T03:18:23.179Z,11.20
2018-05-18T03:19:23.139Z,11.27
2018-05-18T03:20:23.096Z,11.25
2018-05-18T03:21:23.050Z,11.31
2018-05-18T03:22:23.005Z,11.23
2018-05-18T03:23:22.965Z,11.25
2018-05-18T03:24:22.924Z,11.18
2018-05-18T03:25:22.876Z,11.25
2018-05-18T03:26:22.832Z,11.27
2018-05-18T03:27:22.788Z,11.22
2018-05-18T03:28:22.742Z,11.23
2018-05-18T03:29:22.700Z,11.25
2018-05-18T03:30:22.708Z,11.22
2018-05-18T03:31:22.617Z,11.22
2018-05-18T03:32:22.573Z,11.25
2018-05-18T03:33:22.527Z,11.19
2018-05-18T03:34:22.481Z,11.25
2018-05-18T03:35:22.441Z,11.19
2018-05-18T03:36:22.396Z,11.20
2018-05-18T03:37:22.354Z,11.26
2018-05-18T03:38:22.311Z,11.22
2018-05-18T03:39:22.265Z,11.22
2018-05-18T03:40:22.222Z,11.22
2018-05-18T03:41:22.178Z,11.30
2018-05-18T03:42:22.137Z,11.18
2018-05-18T03:43:22.089Z,11.22
2018-05-18T03:44:22.051Z,11.20
2018-05-18T03:45:22.006Z,11.19
2018-05-18T03:46:21.963Z,11.22
2018-05-18T03:47:21.918Z,11.20
2018-05-18T03:48:21.874Z,11.26
2018-05-18T03:49:21.857Z,11.19
2018-05-18T03:50:21.790Z,11.16
2018-05-18T03:51:21.756Z,11.16
2018-05-18T03:52:21.702Z,11.15
2018-05-18T03:53:21.658Z,11.19
2018-05-18T03:54:21.614Z,11.12
2018-05-18T03:55:21.572Z,11.18
2018-05-18T03:56:21.531Z,11.07
2018-05-18T03:57:21.488Z,11.02
2018-05-18T03:58:21.445Z,10.98
2018-05-18T03:59:21.398Z,11.05
2018-05-18T04:00:21.354Z,11.04
2018-05-18T04:01:21.338Z,11.08
2018-05-18T04:02:21.271Z,11.02
2018-05-18T04:03:21.222Z,11.05
2018-05-18T04:04:21.177Z,11.08
2018-05-18T04:05:21.135Z,11.07
2018-05-18T04:06:21.096Z,11.05
2018-05-18T04:07:21.047Z,11.13
2018-05-18T04:08:21.001Z,11.05
2018-05-18T04:09:20.960Z,11.10
2018-05-18T04:10:20.938Z,11.01
2018-05-18T04:11:20.874Z,11.05
2018-05-18T04:12:20.829Z,10.92
2018-05-18T04:13:20.787Z,10.94
2018-05-18T04:14:20.741Z,10.94
2018-05-18T04:15:20.697Z,10.97
2018-05-18T04:16:20.655Z,11.05
2018-05-18T04:17:20.611Z,10.94
2018-05-18T04:18:20.567Z,10.92
2018-05-18T04:19:20.524Z,10.97
2018-05-18T04:20:20.480Z,10.92
2018-05-18T04:21:20.438Z,10.94
2018-05-18T04:22:20.391Z,10.94
2018-05-18T04:23:20.351Z,10.94
2018-05-18T04:24:20.309Z,10.89
2018-05-18T04:25:20.267Z,10.94
2018-05-18T04:26:20.216Z,10.94
2018-05-18T04:27:20.173Z,10.92
2018-05-18T04:28:20.131Z,10.84
2018-05-18T04:29:20.090Z,10.92
2018-05-18T04:30:20.083Z,10.90
2018-05-18T04:31:20.000Z,10.77
2018-05-18T04:32:19.956Z,10.82
2018-05-18T04:33:19.912Z,10.86
2018-05-18T04:34:19.867Z,10.80
2018-05-18T04:35:19.828Z,10.80
2018-05-18T04:36:19.786Z,10.84
2018-05-18T04:37:19.744Z,10.84
2018-05-18T04:38:19.695Z,10.84
2018-05-18T04:39:19.653Z,10.79
2018-05-18T04:40:19.609Z,10.79
2018-05-18T04:41:19.562Z,10.77
2018-05-18T04:42:19.517Z,10.89
2018-05-18T04:43:19.549Z,10.77
2018-05-18T04:44:19.432Z,10.77
2018-05-18T04:45:19.389Z,10.82
2018-05-18T04:46:19.343Z,10.82
2018-05-18T04:47:19.300Z,10.84
2018-05-18T04:48:19.257Z,10.80
2018-05-18T04:49:19.211Z,10.82
2018-05-18T04:50:19.172Z,10.89
2018-05-18T04:51:19.130Z,10.84
2018-05-18T04:52:19.080Z,10.80
2018-05-18T04:53:19.040Z,10.79
2018-05-18T04:54:18.995Z,10.86
2018-05-18T04:55:18.954Z,10.89
2018-05-18T04:56:18.905Z,10.94
2018-05-18T04:57:18.863Z,10.97
2018-05-18T04:58:18.822Z,10.90
2018-05-18T04:59:18.784Z,10.92
2018-05-18T05:00:18.734Z,10.92
2018-05-18T05:01:18.687Z,10.92
2018-05-18T05:02:18.645Z,10.86
2018-05-18T05:03:18.607Z,10.86
2018-05-18T05:04:18.559Z,10.94
2018-05-18T05:05:18.523Z,10.95
2018-05-18T05:06:18.474Z,10.92
2018-05-18T05:07:18.428Z,11.00
2018-05-18T05:08:18.397Z,11.02
2018-05-18T05:09:18.338Z,11.05
2018-05-18T05:10:18.294Z,10.98
2018-05-18T05:11:18.251Z,11.04
2018-05-18T05:12:18.211Z,11.02
2018-05-18T05:13:18.172Z,11.13
2018-05-18T05:14:18.131Z,11.01
2018-05-18T05:15:18.077Z,11.04
2018-05-18T05:16:18.037Z,11.07
2018-05-18T05:17:17.996Z,11.19
2018-05-18T05:18:17.947Z,11.18
2018-05-18T05:19:17.903Z,11.23
2018-05-18T05:20:17.861Z,11.16
2018-05-18T05:21:17.817Z,11.23
2018-05-18T05:22:17.781Z,11.18
2018-05-18T05:23:17.727Z,11.20
2018-05-18T05:24:17.686Z,11.25
2018-05-18T05:25:17.643Z,11.16
2018-05-18T05:26:17.598Z,11.22
2018-05-18T05:27:17.552Z,11.22
2018-05-18T05:28:17.509Z,11.26
2018-05-18T05:29:17.467Z,11.22
2018-05-18T05:30:17.432Z,11.30
2018-05-18T05:31:17.387Z,11.26
2018-05-18T05:32:17.345Z,11.26
2018-05-18T05:33:17.298Z,11.23
2018-05-18T05:34:17.252Z,11.26
2018-05-18T05:35:17.208Z,11.31
2018-05-18T05:36:17.169Z,11.30
2018-05-18T05:37:17.117Z,11.33
2018-05-18T05:38:17.076Z,11.43
2018-05-18T05:39:17.035Z,11.43
2018-05-18T05:40:17.066Z,11.37
2018-05-18T05:41:16.943Z,11.45
2018-05-18T05:42:16.899Z,11.40
2018-05-18T05:43:16.858Z,11.45
2018-05-18T05:44:16.812Z,11.49
2018-05-18T05:45:16.774Z,11.49
2018-05-18T05:46:16.725Z,11.43
2018-05-18T05:47:16.684Z,11.48
2018-05-18T05:48:16.641Z,11.56
2018-05-18T05:49:16.607Z,11.60
2018-05-18T05:50:16.554Z,11.65
2018-05-18T05:51:16.507Z,11.67
2018-05-18T05:52:16.469Z,11.70
2018-05-18T05:53:16.425Z,11.70
2018-05-18T05:54:16.389Z,11.70
2018-05-18T05:55:16.336Z,11.67
2018-05-18T05:56:16.290Z,11.65
2018-05-18T05:57:16.249Z,11.73
2018-05-18T05:58:16.207Z,11.76
2018-05-18T05:59:16.161Z,11.80
2018-05-18T06:00:16.119Z,11.80
2018-05-18T06:01:16.075Z,11.71
2018-05-18T06:02:16.031Z,11.78
2018-05-18T06:03:15.992Z,11.88
2018-05-18T06:04:15.948Z,11.81
2018-05-18T06:05:15.978Z,11.88
2018-05-18T06:06:15.860Z,11.89
2018-05-18T06:07:15.818Z,11.85
2018-05-18T06:08:15.775Z,11.97
2018-05-18T06:09:15.750Z,12.00
2018-05-18T06:10:15.690Z,11.99
2018-05-18T06:11:15.645Z,12.07
2018-05-18T06:12:15.694Z,12.15
2018-05-18T06:13:15.560Z,12.14
2018-05-18T06:14:15.513Z,12.14
2018-05-18T06:15:15.471Z,12.11
2018-05-18T06:16:15.424Z,12.28
2018-05-18T06:17:15.393Z,12.23
2018-05-18T06:18:15.340Z,12.35
2018-05-18T06:19:15.295Z,12.25
2018-05-18T06:20:15.255Z,12.39
2018-05-18T06:21:15.211Z,12.48
2018-05-18T06:22:15.165Z,12.50
2018-05-18T06:23:15.122Z,12.63
2018-05-18T06:24:15.080Z,12.61
2018-05-18T06:25:15.042Z,12.65
2018-05-18T06:26:14.993Z,12.68
2018-05-18T06:27:14.951Z,12.70
2018-05-18T06:28:14.907Z,12.65
2018-05-18T06:29:14.865Z,12.66
2018-05-18T06:30:14.820Z,12.69
2018-05-18T06:31:14.786Z,12.66
2018-05-18T06:32:14.737Z,12.69
2018-05-18T06:33:14.695Z,12.69
2018-05-18T06:34:14.652Z,12.70
2018-05-18T06:35:14.637Z,12.63
2018-05-18T06:36:14.564Z,12.62
2018-05-18T06:37:14.525Z,12.62
2018-05-18T06:38:14.482Z,12.62
2018-05-18T06:39:14.471Z,12.62
2018-05-18T06:40:14.396Z,12.58
2018-05-18T06:41:14.439Z,12.62
2018-05-18T06:42:14.309Z,12.62
2018-05-18T06:43:14.268Z,12.58
2018-05-18T06:44:14.222Z,12.62
2018-05-18T06:45:14.179Z,12.61
2018-05-18T06:46:14.133Z,12.63
2018-05-18T06:47:14.091Z,12.62
2018-05-18T06:48:14.049Z,12.62
2018-05-18T06:49:14.009Z,12.62
2018-05-18T06:50:13.964Z,12.58
2018-05-18T06:51:13.925Z,12.63
2018-05-18T06:52:13.880Z,12.61
2018-05-18T06:53:13.834Z,12.57
2018-05-18T06:54:13.793Z,12.62
2018-05-18T06:55:13.746Z,12.58
2018-05-18T06:56:13.703Z,12.66
2018-05-18T06:57:13.660Z,12.72
2018-05-18T06:58:13.617Z,12.80
2018-05-18T06:59:13.574Z,12.81
2018-05-18T07:00:13.532Z,12.86
2018-05-18T07:01:13.491Z,12.86
2018-05-18T07:02:13.444Z,12.75
2018-05-18T07:03:13.403Z,12.84
2018-05-18T07:04:13.360Z,12.90
2018-05-18T07:05:13.321Z,12.93
2018-05-18T07:06:13.290Z,13.02
2018-05-18T07:07:13.235Z,12.99
2018-05-18T07:08:13.194Z,12.90
2018-05-18T07:10:13.110Z,13.03
2018-05-18T07:11:13.067Z,12.99
2018-05-18T07:12:13.021Z,13.03
2018-05-18T07:13:12.978Z,13.05
2018-05-18T07:14:12.931Z,13.05
2018-05-18T07:15:12.889Z,13.01
2018-05-18T07:16:12.859Z,12.99
2018-05-18T07:17:12.805Z,12.95
2018-05-18T07:18:12.764Z,13.06
2018-05-18T07:19:12.721Z,13.06
2018-05-18T07:20:12.677Z,13.03
2018-05-18T07:21:12.635Z,13.03
2018-05-18T07:22:12.591Z,13.08
2018-05-18T07:23:12.550Z,13.13
2018-05-18T07:24:12.505Z,13.13
2018-05-18T07:25:12.462Z,13.13
2018-05-18T07:26:12.417Z,13.13
2018-05-18T07:27:12.386Z,13.17
2018-05-18T07:28:12.332Z,13.28
2018-05-18T07:29:12.292Z,13.33
2018-05-18T07:30:12.250Z,13.27
2018-05-18T07:31:12.205Z,13.31
2018-05-18T07:32:12.165Z,13.33
2018-05-18T07:33:12.121Z,13.28
2018-05-18T07:34:12.081Z,13.40
2018-05-18T07:35:12.036Z,13.46
2018-05-18T07:36:12.003Z,13.50
2018-05-18T07:37:11.955Z,13.57
2018-05-18T07:38:11.912Z,13.54
2018-05-18T07:39:11.864Z,13.58
2018-05-18T07:40:11.820Z,13.60
2018-05-18T07:41:11.780Z,13.54
2018-05-18T07:42:11.736Z,13.68
2018-05-18T07:43:11.697Z,13.58
2018-05-18T07:44:11.651Z,13.61
2018-05-18T07:45:11.610Z,13.67
2018-05-18T07:46:11.565Z,13.64
2018-05-18T07:47:11.527Z,13.70
2018-05-18T07:48:11.481Z,13.71
2018-05-18T07:49:11.438Z,13.75
2018-05-18T07:50:11.410Z,13.87
2018-05-18T07:51:11.353Z,13.87
2018-05-18T07:52:11.315Z,13.94
2018-05-18T07:53:11.269Z,13.94
2018-05-18T07:54:11.228Z,13.89
2018-05-18T07:55:11.184Z,14.30
2018-05-18T07:56:11.141Z,14.71
2018-05-18T07:57:11.100Z,14.99
2018-05-18T07:58:11.055Z,15.11
2018-05-18T07:59:11.017Z,15.36
2018-05-18T08:00:10.972Z,15.47
2018-05-18T08:01:10.935Z,15.62
2018-05-18T08:02:10.888Z,15.75
2018-05-18T08:03:10.847Z,15.80
2018-05-18T08:04:10.809Z,15.94
2018-05-18T08:05:10.762Z,15.99
2018-05-18T08:06:10.717Z,16.08
2018-05-18T08:07:10.676Z,16.22
2018-05-18T08:08:12.185Z,16.22
2018-05-18T08:09:10.594Z,16.21
2018-05-18T08:10:10.551Z,16.26
2018-05-18T08:11:10.508Z,16.32
2018-05-18T08:12:10.468Z,16.37
2018-05-18T08:13:10.426Z,16.47
2018-05-18T08:14:10.383Z,16.55
2018-05-18T08:15:10.440Z,16.65
2018-05-18T08:16:10.302Z,16.74
2018-05-18T08:17:10.266Z,16.79
2018-05-18T08:18:10.215Z,16.82
2018-05-18T08:19:10.180Z,16.89
2018-05-18T08:20:10.133Z,16.97
2018-05-18T08:21:10.096Z,17.09
2018-05-18T08:22:10.049Z,17.09
2018-05-18T08:23:10.009Z,17.17
2018-05-18T08:24:09.968Z,17.28
2018-05-18T08:25:09.927Z,17.28
2018-05-18T08:26:09.885Z,17.37
2018-05-18T08:27:09.916Z,17.53
2018-05-18T08:28:09.809Z,17.56
2018-05-18T08:29:09.765Z,17.66
2018-05-18T08:30:09.725Z,17.63
2018-05-18T08:31:09.685Z,17.73
2018-05-18T08:32:09.640Z,17.71
2018-05-18T08:33:09.599Z,17.71
2018-05-18T08:34:09.561Z,17.65
2018-05-18T08:35:09.526Z,17.65
2018-05-18T08:36:09.482Z,17.78
2018-05-18T08:37:09.438Z,17.76
2018-05-18T08:38:09.396Z,17.69
2018-05-18T08:39:09.414Z,17.57
2018-05-18T08:40:09.317Z,17.57
2018-05-18T08:41:09.282Z,17.60
2018-05-18T08:42:09.231Z,17.60
2018-05-18T08:43:09.194Z,17.76
2018-05-18T08:44:09.154Z,17.88
2018-05-18T08:45:09.119Z,18.02
2018-05-18T08:46:09.101Z,18.05
2018-05-18T08:47:09.035Z,18.08
2018-05-18T08:48:08.991Z,18.18
2018-05-18T08:49:08.955Z,18.28
2018-05-18T08:50:08.910Z,18.41
2018-05-18T08:51:08.872Z,18.42
2018-05-18T08:52:08.834Z,18.34
2018-05-18T08:53:08.789Z,18.41
2018-05-18T08:54:08.750Z,18.42
2018-05-18T08:55:08.712Z,18.42
2018-05-18T08:56:08.671Z,18.57
2018-05-18T08:57:08.630Z,18.61
2018-05-18T08:58:08.590Z,18.66
2018-05-18T08:59:08.551Z,18.70
2018-05-18T09:00:08.510Z,18.74
2018-05-18T09:01:08.476Z,18.78
2018-05-18T09:02:08.429Z,18.82
2018-05-18T09:03:08.389Z,18.79
2018-05-18T09:04:08.352Z,18.82
2018-05-18T09:05:08.318Z,18.86
2018-05-18T09:06:08.287Z,18.85
2018-05-18T09:07:08.236Z,18.85
2018-05-18T09:08:08.197Z,18.82
2018-05-18T09:09:12.660Z,18.97
2018-05-18T09:10:08.115Z,19.08
2018-05-18T09:11:08.082Z,19.19
2018-05-18T09:12:08.036Z,19.27
2018-05-18T09:13:08.027Z,19.29
2018-05-18T09:14:07.968Z,19.35
2018-05-18T09:15:07.918Z,19.38
2018-05-18T09:16:07.886Z,19.45
2018-05-18T09:17:07.847Z,19.53
2018-05-18T09:18:07.802Z,19.56
2018-05-18T09:19:07.762Z,19.62
2018-05-18T09:20:07.723Z,19.74
2018-05-18T09:21:07.694Z,19.72
2018-05-18T09:22:07.658Z,19.96
2018-05-18T09:23:07.615Z,19.92
2018-05-18T09:24:07.592Z,20.02
2018-05-18T09:25:07.532Z,20.08
2018-05-18T09:26:07.492Z,20.22
2018-05-18T09:27:07.460Z,20.24
2018-05-18T09:28:07.421Z,20.14
2018-05-18T09:29:07.379Z,20.08
2018-05-18T09:30:07.337Z,20.08
2018-05-18T09:31:07.299Z,20.22
2018-05-18T09:32:07.261Z,20.22
2018-05-18T09:33:07.221Z,20.07
2018-05-18T09:34:07.233Z,20.00
2018-05-18T09:35:07.141Z,19.84
2018-05-18T09:36:07.104Z,19.89
2018-05-18T09:37:07.064Z,19.99
2018-05-18T09:38:07.039Z,20.10
2018-05-18T09:39:06.987Z,20.07
2018-05-18T09:40:06.953Z,20.18
2018-05-18T09:41:06.911Z,20.21
2018-05-18T09:42:06.870Z,20.19
2018-05-18T09:43:06.832Z,20.34
2018-05-18T09:44:06.794Z,20.32
2018-05-18T09:45:06.789Z,20.36
2018-05-18T09:46:06.716Z,20.22
2018-05-18T09:47:06.682Z,20.27
2018-05-18T09:48:06.640Z,20.34
2018-05-18T09:49:06.600Z,20.32
2018-05-18T09:50:06.562Z,20.36
2018-05-18T09:51:06.524Z,20.34
2018-05-18T09:52:06.489Z,20.37
2018-05-18T09:53:06.470Z,20.44
2018-05-18T09:54:06.414Z,20.48
2018-05-18T09:55:06.636Z,20.44
2018-05-18T09:56:06.330Z,20.56
2018-05-18T09:57:06.292Z,20.56
2018-05-18T09:58:06.253Z,20.52
2018-05-18T09:59:06.215Z,20.56
2018-05-18T10:00:06.177Z,20.63
2018-05-18T10:01:06.138Z,20.59
2018-05-18T10:02:06.099Z,20.63
2018-05-18T10:03:06.064Z,20.66
2018-05-18T10:04:06.021Z,20.70
2018-05-18T10:05:05.983Z,20.80
2018-05-18T10:06:05.943Z,20.82
2018-05-18T10:07:05.907Z,20.83
2018-05-18T10:08:05.878Z,20.92
2018-05-18T10:09:05.837Z,20.86
2018-05-18T10:10:05.793Z,21.01
2018-05-18T10:11:05.755Z,21.03
2018-05-18T10:12:05.717Z,20.98
2018-05-18T10:13:05.675Z,20.96
2018-05-18T10:14:05.635Z,20.98
2018-05-18T10:15:05.598Z,21.01
2018-05-18T10:16:05.558Z,21.03
2018-05-18T10:17:05.523Z,21.04
2018-05-18T10:18:05.521Z,21.11
2018-05-18T10:19:05.441Z,21.10
2018-05-18T10:20:05.408Z,21.11
2018-05-18T10:21:05.367Z,21.15
2018-05-18T10:22:05.333Z,21.10
2018-05-18T10:23:05.293Z,21.01
2018-05-18T10:24:05.250Z,20.75
2018-05-18T10:25:05.212Z,20.73
2018-05-18T10:26:05.176Z,20.73
2018-05-18T10:27:05.148Z,20.75
2018-05-18T10:28:05.095Z,20.73
2018-05-18T10:29:05.058Z,20.80
2018-05-18T10:30:05.018Z,20.73
2018-05-18T10:31:04.979Z,20.82
2018-05-18T10:32:04.947Z,20.83
2018-05-18T10:33:04.904Z,20.83
2018-05-18T10:34:04.863Z,20.90
2018-05-18T10:35:04.826Z,21.00
2018-05-18T10:36:04.795Z,21.17
2018-05-18T10:37:04.755Z,21.11
2018-05-18T10:38:04.709Z,21.15
2018-05-18T10:39:04.673Z,21.17
2018-05-18T10:40:04.631Z,21.22
2018-05-18T10:41:04.594Z,21.25
2018-05-18T10:42:04.556Z,21.19
2018-05-18T10:43:04.516Z,21.28
2018-05-18T10:44:04.478Z,21.28
2018-05-18T10:45:04.440Z,21.33
2018-05-18T10:46:04.401Z,21.37
2018-05-18T10:47:04.362Z,21.51
2018-05-18T10:48:04.327Z,21.48
2018-05-18T10:49:04.286Z,21.56
2018-05-18T10:50:04.251Z,21.63
2018-05-18T10:51:04.212Z,21.60
2018-05-18T10:52:04.170Z,21.68
2018-05-18T10:53:04.155Z,21.77
2018-05-18T10:54:04.099Z,21.85
2018-05-18T10:55:04.066Z,21.94
2018-05-18T10:56:04.028Z,22.08
2018-05-18T10:57:03.981Z,22.21
2018-05-18T10:58:03.942Z,22.18
2018-05-18T10:59:03.906Z,22.21
2018-05-18T11:00:03.865Z,22.28
2018-05-18T11:01:03.827Z,22.33
2018-05-18T11:02:03.788Z,22.40
2018-05-18T11:03:03.750Z,22.40
2018-05-18T11:04:03.713Z,22.44
2018-05-18T11:05:03.677Z,22.55
2018-05-18T11:06:03.638Z,22.61
2018-05-18T11:07:03.704Z,22.71
2018-05-18T11:08:03.565Z,22.78
2018-05-18T11:09:03.524Z,22.84
2018-05-18T11:10:03.485Z,22.93
2018-05-18T11:11:03.449Z,22.98
2018-05-18T11:12:03.411Z,23.02
2018-05-18T11:13:03.377Z,23.11
2018-05-18T11:14:03.362Z,23.26
2018-05-18T11:15:03.297Z,23.29
2018-05-18T11:16:03.266Z,23.23
2018-05-18T11:17:03.224Z,23.26
2018-05-18T11:18:03.185Z,23.26
2018-05-18T11:19:03.148Z,23.34
2018-05-18T11:20:03.205Z,23.36
2018-05-18T11:21:03.077Z,23.45
2018-05-18T11:22:03.036Z,23.58
2018-05-18T11:23:03.002Z,23.63
2018-05-18T11:24:02.962Z,23.79
2018-05-18T11:25:02.930Z,23.85
2018-05-18T11:26:02.889Z,23.94
2018-05-18T11:27:02.851Z,24.04
2018-05-18T11:28:02.825Z,24.24
2018-05-18T11:29:02.777Z,24.28
2018-05-18T11:30:02.738Z,24.44
2018-05-18T11:31:02.703Z,24.62
2018-05-18T11:32:02.685Z,24.65
2018-05-18T11:33:02.727Z,24.84
2018-05-18T11:34:02.591Z,24.97
2018-05-18T11:35:02.552Z,25.00
2018-05-18T11:36:02.518Z,25.11
2018-05-18T11:37:02.479Z,25.21
2018-05-18T11:38:02.441Z,25.41
2018-05-18T11:39:02.423Z,25.55
2018-05-18T11:40:02.392Z,25.76
2018-05-18T11:41:02.340Z,25.78
2018-05-18T11:42:02.294Z,25.99
2018-05-18T11:43:02.257Z,26.03
2018-05-18T11:44:02.221Z,26.30
2018-05-18T11:45:02.188Z,26.22
2018-05-18T11:46:02.161Z,26.36
2018-05-18T11:47:02.137Z,26.37
2018-05-18T11:48:02.139Z,26.46
2018-05-18T11:49:02.040Z,26.51
2018-05-18T11:50:02.054Z,26.45
2018-05-18T11:51:01.966Z,26.49
2018-05-18T11:52:01.937Z,26.34
2018-05-18T11:53:01.894Z,26.36
2018-05-18T11:54:01.857Z,26.23
2018-05-18T11:55:01.821Z,26.27
2018-05-18T11:56:01.783Z,26.19
2018-05-18T11:57:01.750Z,26.19
2018-05-18T11:58:01.719Z,26.19
2018-05-18T11:59:01.684Z,26.30
2018-05-18T12:00:01.646Z,26.36
2018-05-18T12:01:01.608Z,26.34
2018-05-18T12:03:01.549Z,26.19
2018-05-18T12:04:01.527Z,26.07
2018-05-18T12:05:01.458Z,26.15
2018-05-18T12:06:01.421Z,26.16
2018-05-18T12:07:01.382Z,26.26
2018-05-18T12:08:01.346Z,26.37
2018-05-18T12:09:01.310Z,26.45
2018-05-18T12:10:01.276Z,26.45
2018-05-18T12:11:01.240Z,26.53
2018-05-18T12:12:01.203Z,26.76
2018-05-18T12:13:01.165Z,26.81
2018-05-18T12:14:01.143Z,26.73
2018-05-18T12:15:01.093Z,26.79
2018-05-18T12:16:01.056Z,26.88
2018-05-18T12:17:01.020Z,26.93
2018-05-18T12:18:00.984Z,27.11
2018-05-18T12:19:00.948Z,27.28
2018-05-18T12:20:00.918Z,27.45
2018-05-18T12:21:01.267Z,27.68
2018-05-18T12:22:00.958Z,27.93
2018-05-18T12:23:00.997Z,28.18
2018-05-18T12:24:00.972Z,28.30
2018-05-18T12:25:00.735Z,28.47
2018-05-18T12:26:00.704Z,28.46
2018-05-18T12:27:00.659Z,28.41
2018-05-18T12:28:00.622Z,28.52
2018-05-18T12:29:00.588Z,28.67
2018-05-18T12:30:00.552Z,28.77
2018-05-18T12:31:00.515Z,28.74
2018-05-18T12:32:00.483Z,28.74
2018-05-18T12:33:00.446Z,28.86
2018-05-18T12:34:00.409Z,28.96
2018-05-18T12:35:00.374Z,29.05
2018-05-18T12:36:00.337Z,29.07
2018-05-18T12:37:00.299Z,29.07
2018-05-18T12:38:00.271Z,29.21
2018-05-18T12:39:00.255Z,29.16
2018-05-18T12:40:00.216Z,29.21
2018-05-18T12:41:00.158Z,29.34
2018-05-18T12:42:00.144Z,29.46
2018-05-18T12:43:00.087Z,29.43
2018-05-18T12:44:00.050Z,29.50
2018-05-18T12:45:00.039Z,29.49
2018-05-18T12:45:59.979Z,29.52
2018-05-18T12:46:59.946Z,29.49
2018-05-18T12:47:59.910Z,29.52
2018-05-18T12:48:59.873Z,29.43
2018-05-18T12:49:59.833Z,29.39
2018-05-18T12:50:59.797Z,29.39
2018-05-18T12:51:59.761Z,29.32
2018-05-18T12:52:59.727Z,29.22
2018-05-18T12:53:59.699Z,29.25